createdAt,value
2024-02-05T00:00:12.852Z,13.78
2024-02-05T00:02:41.295Z,13.75
2024-02-05T00:05:11.729Z,13.82
2024-02-05T00:07:39.440Z,13.81
2024-02-05T00:10:08.568Z,13.82
2024-02-05T00:12:36.639Z,13.81
2024-02-05T00:15:05.324Z,13.81
2024-02-05T00:17:33.433Z,13.86
2024-02-05T00:20:01.074Z,13.84
2024-02-05T00:22:28.404Z,13.76
2024-02-05T00:24:55.519Z,13.81
2024-02-05T00:27:23.348Z,13.79
2024-02-05T00:29:50.449Z,13.80
2024-02-05T00:32:17.525Z,13.79
2024-02-05T00:34:44.860Z,13.75
2024-02-05T00:37:12.104Z,13.75
2024-02-05T00:39:39.474Z,13.75
2024-02-05T00:42:06.705Z,13.75
2024-02-05T00:44:33.751Z,13.73
2024-02-05T00:47:00.822Z,13.76
2024-02-05T00:49:27.993Z,13.69
2024-02-05T00:51:55.192Z,13.74
2024-02-05T00:54:22.342Z,13.76
2024-02-05T00:56:49.455Z,13.75
2024-02-05T00:59:16.526Z,13.75
2024-02-05T01:01:45.683Z,13.80
2024-02-05T01:04:13.521Z,13.78
2024-02-05T01:06:41.392Z,13.75
2024-02-05T01:09:11.111Z,13.68
2024-02-05T01:11:38.453Z,13.70
2024-02-05T01:14:05.744Z,13.65
2024-02-05T01:16:33.212Z,13.63
2024-02-05T01:19:00.662Z,13.62
2024-02-05T01:21:27.987Z,13.62
2024-02-05T01:23:55.217Z,13.64
2024-02-05T01:26:23.121Z,13.61
2024-02-05T01:28:50.290Z,13.58
2024-02-05T01:31:17.753Z,13.61
2024-02-05T01:33:44.931Z,13.60
2024-02-05T01:36:12.127Z,13.63
2024-02-05T01:38:39.394Z,13.62
2024-02-05T01:41:06.583Z,13.62
2024-02-05T01:43:33.873Z,13.63
2024-02-05T01:46:01.349Z,13.66
2024-02-05T01:48:34.527Z,13.70
2024-02-05T01:51:02.702Z,13.67
2024-02-05T01:53:30.144Z,13.67
2024-02-05T01:55:58.426Z,13.63
2024-02-05T01:58:26.402Z,13.67
2024-02-05T02:00:54.344Z,13.64
2024-02-05T02:03:21.851Z,13.64
2024-02-05T02:05:49.320Z,13.66
2024-02-05T02:08:17.979Z,13.70
2024-02-05T02:10:47.624Z,13.67
2024-02-05T02:13:17.391Z,13.73
2024-02-05T02:15:49.834Z,13.73
2024-02-05T02:18:20.998Z,13.73
2024-02-05T02:20:50.540Z,13.68
2024-02-05T02:23:33.215Z,13.77
2024-02-05T02:26:01.926Z,13.79
2024-02-05T02:28:29.021Z,13.76
2024-02-05T02:30:57.486Z,13.78
2024-02-05T02:33:57.161Z,13.80
2024-02-05T02:36:33.869Z,13.78
2024-02-05T02:39:12.224Z,13.82
2024-02-05T02:41:43.369Z,13.83
2024-02-05T02:44:11.909Z,13.85
2024-02-05T02:46:40.170Z,13.92
2024-02-05T02:49:07.416Z,13.94
2024-02-05T02:51:35.608Z,13.98
2024-02-05T02:54:04.049Z,13.98
2024-02-05T02:56:31.218Z,13.99
2024-02-05T02:58:58.265Z,13.97
2024-02-05T03:01:25.361Z,13.96
2024-02-05T03:03:52.571Z,14.01
2024-02-05T03:06:19.676Z,13.97
2024-02-05T03:08:46.701Z,13.97
2024-02-05T03:11:13.847Z,13.98
2024-02-05T03:13:41.883Z,13.96
2024-02-05T03:16:08.973Z,13.93
2024-02-05T03:18:36.082Z,13.88
2024-02-05T03:21:03.427Z,13.88
2024-02-05T03:23:30.470Z,13.89
2024-02-05T03:25:57.469Z,13.80
2024-02-05T03:28:28.097Z,13.85
2024-02-05T03:30:56.124Z,13.79
2024-02-05T03:33:23.416Z,13.82
2024-02-05T03:35:50.525Z,13.81
2024-02-05T03:38:17.573Z,13.84
2024-02-05T03:40:44.622Z,13.81
2024-02-05T03:43:11.673Z,13.85
2024-02-05T03:45:38.844Z,13.84
2024-02-05T03:48:07.676Z,13.88
2024-02-05T03:50:35.010Z,13.89
2024-02-05T03:53:03.685Z,13.88
2024-02-05T03:55:31.614Z,13.81
2024-02-05T03:58:01.588Z,13.81
2024-02-05T04:00:29.209Z,13.82
2024-02-05T04:02:57.548Z,13.79
2024-02-05T04:05:30.106Z,13.75
2024-02-05T04:07:58.704Z,13.74
2024-02-05T04:10:28.115Z,13.73
2024-02-05T04:12:55.513Z,13.72
2024-02-05T04:15:22.628Z,13.63
2024-02-05T04:17:50.189Z,13.69
2024-02-05T04:20:17.614Z,13.66
2024-02-05T04:22:44.805Z,13.66
2024-02-05T04:25:12.097Z,13.67
2024-02-05T04:27:39.336Z,13.66
2024-02-05T04:30:07.609Z,13.69
2024-02-05T04:32:35.130Z,13.70
2024-02-05T04:35:02.665Z,13.77
2024-02-05T04:37:29.913Z,13.75
2024-02-05T04:39:58.229Z,13.74
2024-02-05T04:42:25.336Z,13.75
2024-02-05T04:44:52.418Z,13.76
2024-02-05T04:47:19.559Z,13.78
2024-02-05T04:49:48.518Z,13.73
2024-02-05T04:52:15.912Z,13.74
2024-02-05T04:54:44.116Z,13.73
2024-02-05T04:57:11.322Z,13.74
2024-02-05T04:59:38.468Z,13.66
2024-02-05T05:02:05.792Z,13.70
2024-02-05T05:04:33.222Z,13.64
2024-02-05T05:07:01.106Z,13.70
2024-02-05T05:09:28.253Z,13.61
2024-02-05T05:11:55.500Z,13.61
2024-02-05T05:14:22.646Z,13.61
2024-02-05T05:16:49.720Z,13.60
2024-02-05T05:19:16.985Z,13.57
2024-02-05T05:21:44.494Z,13.59
2024-02-05T05:24:13.036Z,13.55
2024-02-05T05:26:40.216Z,13.59
2024-02-05T05:29:07.217Z,13.58
2024-02-05T05:31:34.422Z,13.52
2024-02-05T05:34:01.650Z,13.51
2024-02-05T05:36:28.792Z,13.50
2024-02-05T05:38:55.841Z,13.53
2024-02-05T05:41:22.909Z,13.50
2024-02-05T05:43:49.975Z,13.51
2024-02-05T05:46:17.204Z,13.50
2024-02-05T05:48:44.387Z,13.47
2024-02-05T05:51:11.948Z,13.44
2024-02-05T05:53:39.028Z,13.45
2024-02-05T05:56:07.083Z,13.48
2024-02-05T05:58:34.331Z,13.42
2024-02-05T06:01:06.682Z,13.47
2024-02-05T06:03:33.970Z,13.45
2024-02-05T06:06:01.365Z,13.50
2024-02-05T06:08:28.550Z,13.50
2024-02-05T06:10:55.661Z,13.46
2024-02-05T06:13:22.803Z,13.56
2024-02-05T06:15:50.886Z,13.59
2024-02-05T06:18:18.073Z,13.59
2024-02-05T06:20:45.260Z,13.60
2024-02-05T06:23:12.351Z,13.61
2024-02-05T06:25:39.839Z,13.60
2024-02-05T06:28:10.500Z,13.62
2024-02-05T06:30:41.677Z,13.60
2024-02-05T06:33:08.896Z,13.53
2024-02-05T06:35:35.975Z,13.62
2024-02-05T06:38:03.034Z,13.70
2024-02-05T06:40:30.207Z,13.73
2024-02-05T06:42:57.481Z,13.75
2024-02-05T06:45:24.624Z,13.77
2024-02-05T06:47:52.956Z,13.79
2024-02-05T06:50:20.156Z,13.80
2024-02-05T06:52:49.239Z,13.80
2024-02-05T06:55:16.540Z,13.79
2024-02-05T06:57:43.828Z,13.80
2024-02-05T07:00:11.826Z,13.81
2024-02-05T07:02:39.343Z,13.88
2024-02-05T07:05:08.050Z,13.90
2024-02-05T07:07:35.364Z,13.90
2024-02-05T07:10:03.820Z,13.90
2024-02-05T07:12:31.119Z,13.90
2024-02-05T07:14:58.209Z,13.97
2024-02-05T07:17:37.755Z,13.97
2024-02-05T07:20:06.887Z,13.97
2024-02-05T07:22:34.274Z,14.00
2024-02-05T07:25:01.465Z,13.99
2024-02-05T07:27:29.043Z,13.97
2024-02-05T07:29:56.554Z,13.98
2024-02-05T07:32:23.625Z,13.99
2024-02-05T07:34:50.948Z,13.98
2024-02-05T07:37:18.169Z,13.97
2024-02-05T07:39:45.325Z,14.01
2024-02-05T07:42:12.404Z,14.05
2024-02-05T07:44:39.574Z,14.06
2024-02-05T07:47:06.897Z,14.05
2024-02-05T07:49:35.308Z,14.04
2024-02-05T07:52:02.538Z,14.05
2024-02-05T07:54:29.785Z,14.06
2024-02-05T07:56:58.361Z,14.08
2024-02-05T07:59:25.617Z,14.10
2024-02-05T08:01:53.148Z,14.10
2024-02-05T08:04:20.469Z,14.18
2024-02-05T08:06:48.061Z,14.19
2024-02-05T08:09:15.248Z,14.18
2024-02-05T08:11:42.994Z,14.25
2024-02-05T08:14:11.256Z,14.26
2024-02-05T08:16:41.182Z,14.22
2024-02-05T08:19:09.653Z,14.25
2024-02-05T08:21:37.397Z,14.25
2024-02-05T08:24:05.429Z,14.31
2024-02-05T08:26:34.593Z,14.34
2024-02-05T08:29:01.695Z,14.37
2024-02-05T08:31:28.812Z,14.38
2024-02-05T08:33:56.023Z,14.42
2024-02-05T08:36:23.130Z,14.35
2024-02-05T08:38:50.238Z,14.36
2024-02-05T08:41:19.910Z,14.40
2024-02-05T08:43:47.492Z,14.43
2024-02-05T08:46:14.694Z,14.44
2024-02-05T08:48:42.100Z,14.40
2024-02-05T08:51:09.347Z,14.43
2024-02-05T08:53:36.494Z,14.43
2024-02-05T08:56:03.788Z,14.39
2024-02-05T08:58:31.011Z,14.40
2024-02-05T09:00:58.144Z,14.39
2024-02-05T09:03:25.222Z,14.44
2024-02-05T09:05:53.037Z,14.48
2024-02-05T09:08:20.696Z,14.51
2024-02-05T09:10:48.130Z,14.55
2024-02-05T09:13:16.974Z,14.57
2024-02-05T09:15:44.724Z,14.57
2024-02-05T09:18:12.012Z,14.55
2024-02-05T09:20:39.200Z,14.61
2024-02-05T09:23:06.739Z,14.67
2024-02-05T09:25:33.979Z,14.66
2024-02-05T09:28:01.761Z,14.66
2024-02-05T09:30:28.978Z,14.68
2024-02-05T09:32:56.296Z,14.69
2024-02-05T09:35:23.675Z,14.74
2024-02-05T09:37:50.901Z,14.70
2024-02-05T09:40:18.209Z,14.77
2024-02-05T09:42:45.971Z,14.79
2024-02-05T09:45:14.229Z,14.72
2024-02-05T09:47:43.108Z,14.79
2024-02-05T09:50:13.678Z,14.74
2024-02-05T09:52:42.687Z,14.75
2024-02-05T09:55:14.426Z,14.78
2024-02-05T09:57:43.111Z,14.78
2024-02-05T10:00:12.143Z,14.74
2024-02-05T10:02:40.494Z,14.76
2024-02-05T10:05:16.216Z,14.79
2024-02-05T10:07:49.413Z,14.81
2024-02-05T10:10:18.739Z,14.82
2024-02-05T10:12:48.984Z,14.87
2024-02-05T10:15:16.485Z,14.92
2024-02-05T10:17:44.702Z,14.96
2024-02-05T10:20:14.324Z,15.00
2024-02-05T10:22:48.699Z,15.02
2024-02-05T10:25:16.998Z,14.98
2024-02-05T10:27:44.500Z,15.06
2024-02-05T10:30:12.107Z,15.06
2024-02-05T10:32:40.430Z,15.11
2024-02-05T10:35:09.835Z,15.15
2024-02-05T10:37:37.364Z,15.17
2024-02-05T10:40:11.272Z,15.24
2024-02-05T10:42:38.556Z,15.23
2024-02-05T10:45:08.195Z,15.28
2024-02-05T10:47:37.855Z,15.29
2024-02-05T10:50:12.033Z,15.34
2024-02-05T10:52:42.027Z,15.34
2024-02-05T10:55:12.086Z,15.43
2024-02-05T10:57:40.338Z,15.43
2024-02-05T11:00:12.176Z,15.48
2024-02-05T11:02:49.363Z,15.53
2024-02-05T11:05:17.440Z,15.52
2024-02-05T11:08:01.152Z,15.60
2024-02-05T11:10:30.836Z,15.59
2024-02-05T11:13:01.212Z,15.62
2024-02-05T11:15:37.251Z,15.67
2024-02-05T11:18:25.653Z,15.66
2024-02-05T11:20:55.991Z,15.66
2024-02-05T11:23:25.039Z,15.65
2024-02-05T11:25:52.954Z,15.67
2024-02-05T11:28:20.412Z,15.66
2024-02-05T11:30:48.473Z,15.71
2024-02-05T11:33:31.050Z,15.74
2024-02-05T11:36:00.577Z,15.68
2024-02-05T11:38:27.726Z,15.62
2024-02-05T11:40:55.197Z,15.66
2024-02-05T11:43:27.190Z,15.70
2024-02-05T11:45:54.985Z,15.71
2024-02-05T11:48:22.953Z,15.70
2024-02-05T11:50:50.826Z,15.71
2024-02-05T11:53:19.050Z,15.71
2024-02-05T11:55:46.144Z,15.69
2024-02-05T11:58:13.922Z,15.70
2024-02-05T12:00:41.368Z,15.70
2024-02-05T12:03:10.286Z,15.73
2024-02-05T12:05:38.068Z,15.77
2024-02-05T12:08:06.852Z,15.79
2024-02-05T12:10:34.404Z,15.84
2024-02-05T12:13:05.121Z,15.91
2024-02-05T12:15:34.083Z,15.87
2024-02-05T12:18:03.086Z,15.93
2024-02-05T12:20:31.529Z,15.90
2024-02-05T12:23:00.136Z,15.95
2024-02-05T12:25:37.948Z,15.93
2024-02-05T12:28:13.491Z,15.90
2024-02-05T12:30:40.692Z,15.85
2024-02-05T12:33:07.948Z,15.90
2024-02-05T12:35:35.123Z,15.88
2024-02-05T12:38:02.227Z,15.80
2024-02-05T12:40:29.630Z,15.89
2024-02-05T12:43:03.331Z,15.89
2024-02-05T12:45:31.013Z,15.90
2024-02-05T12:47:58.982Z,15.89
2024-02-05T12:50:26.298Z,15.86
2024-02-05T12:52:53.391Z,15.85
2024-02-05T12:55:21.276Z,15.84
2024-02-05T12:57:48.454Z,15.82
2024-02-05T13:00:16.851Z,15.76
2024-02-05T13:02:44.068Z,15.70
2024-02-05T13:05:11.924Z,15.73
2024-02-05T13:07:39.474Z,15.66
2024-02-05T13:10:10.015Z,15.69
2024-02-05T13:12:37.224Z,15.60
2024-02-05T13:15:06.643Z,15.65
2024-02-05T13:17:34.478Z,15.64
2024-02-05T13:20:02.171Z,15.62
2024-02-05T13:22:29.782Z,15.61
2024-02-05T13:24:57.038Z,15.60
2024-02-05T13:27:24.846Z,15.64
2024-02-05T13:29:51.889Z,15.67
2024-02-05T13:32:19.714Z,15.75
2024-02-05T13:34:46.922Z,15.77
2024-02-05T13:37:14.701Z,15.78
2024-02-05T13:39:42.783Z,15.78
2024-02-05T13:42:10.135Z,15.79
2024-02-05T13:44:37.673Z,15.77
2024-02-05T13:47:05.139Z,15.80
2024-02-05T13:49:33.676Z,15.79
2024-02-05T13:52:01.092Z,15.75
2024-02-05T13:54:29.032Z,15.74
2024-02-05T13:56:56.155Z,15.72
2024-02-05T13:59:23.239Z,15.70
2024-02-05T14:01:53.780Z,15.70
2024-02-05T14:04:22.152Z,15.66
2024-02-05T14:06:49.551Z,15.66
2024-02-05T14:09:16.695Z,15.69
2024-02-05T14:11:43.778Z,15.70
2024-02-05T14:14:10.930Z,15.76
2024-02-05T14:16:38.353Z,15.79
2024-02-05T14:19:05.541Z,15.81
2024-02-05T14:21:32.684Z,15.89
2024-02-05T14:23:59.751Z,15.91
2024-02-05T14:26:27.895Z,15.95
2024-02-05T14:28:55.002Z,15.96
2024-02-05T14:31:22.193Z,15.96
2024-02-05T14:33:49.445Z,15.95
2024-02-05T14:36:16.565Z,15.93
2024-02-05T14:38:43.698Z,15.90
2024-02-05T14:41:10.816Z,15.82
2024-02-05T14:43:37.975Z,15.85
2024-02-05T14:46:05.206Z,15.82
2024-02-05T14:48:32.490Z,15.79
2024-02-05T14:50:59.798Z,15.74
2024-02-05T14:53:26.997Z,15.74
2024-02-05T14:55:55.754Z,15.72
2024-02-05T14:58:22.940Z,15.71
2024-02-05T15:00:50.317Z,15.68
2024-02-05T15:03:17.448Z,15.66
2024-02-05T15:05:45.152Z,15.63
2024-02-05T15:08:12.409Z,15.56
2024-02-05T15:10:39.559Z,15.53
2024-02-05T15:13:07.596Z,15.59
2024-02-05T15:15:34.762Z,15.58
2024-02-05T15:18:01.937Z,15.59
2024-02-05T15:20:29.020Z,15.57
2024-02-05T15:22:56.058Z,15.53
2024-02-05T15:25:23.402Z,15.56
2024-02-05T15:27:50.551Z,15.51
2024-02-05T15:30:17.790Z,15.48
2024-02-05T15:32:44.983Z,15.42
2024-02-05T15:35:12.574Z,15.36
2024-02-05T15:37:39.877Z,15.38
2024-02-05T15:40:08.023Z,15.35
2024-02-05T15:42:38.140Z,15.32
2024-02-05T15:45:07.843Z,15.28
2024-02-05T15:47:35.281Z,15.22
2024-02-05T15:50:02.547Z,15.17
2024-02-05T15:52:29.677Z,15.15
2024-02-05T15:54:57.532Z,15.10
2024-02-05T15:57:24.807Z,15.02
2024-02-05T15:59:51.946Z,14.96
2024-02-05T16:02:19.068Z,14.93
2024-02-05T16:04:46.321Z,14.91
2024-02-05T16:07:13.552Z,14.87
2024-02-05T16:09:40.688Z,14.82
2024-02-05T16:12:08.384Z,14.78
2024-02-05T16:14:35.509Z,14.70
2024-02-05T16:17:02.732Z,14.62
2024-02-05T16:19:31.133Z,14.58
2024-02-05T16:21:58.706Z,14.52
2024-02-05T16:24:26.189Z,14.43
2024-02-05T16:26:53.890Z,14.41
2024-02-05T16:29:20.991Z,14.36
2024-02-05T16:31:48.232Z,14.27
2024-02-05T16:34:15.891Z,14.29
2024-02-05T16:36:43.109Z,14.23
2024-02-05T16:39:11.704Z,14.22
2024-02-05T16:41:38.790Z,14.12
2024-02-05T16:44:05.979Z,14.15
2024-02-05T16:46:33.492Z,14.08
2024-02-05T16:49:01.265Z,14.04
2024-02-05T16:51:28.377Z,14.02
2024-02-05T16:53:55.614Z,13.99
2024-02-05T16:56:22.757Z,13.98
2024-02-05T16:58:49.863Z,13.96
2024-02-05T17:01:17.222Z,13.92
2024-02-05T17:03:44.539Z,13.93
2024-02-05T17:06:12.084Z,13.91
2024-02-05T17:08:39.638Z,13.86
2024-02-05T17:11:06.838Z,13.87
2024-02-05T17:13:34.168Z,13.85
2024-02-05T17:16:04.963Z,13.82
2024-02-05T17:18:32.486Z,13.77
2024-02-05T17:21:00.022Z,13.76
2024-02-05T17:23:27.124Z,13.74
2024-02-05T17:25:54.233Z,13.72
2024-02-05T17:28:21.403Z,13.71
2024-02-05T17:30:48.733Z,13.67
2024-02-05T17:33:17.045Z,13.60
2024-02-05T17:35:44.471Z,13.58
2024-02-05T17:38:12.167Z,13.59
2024-02-05T17:40:39.475Z,13.54
2024-02-05T17:43:06.661Z,13.49
2024-02-05T17:45:33.754Z,13.51
2024-02-05T17:48:01.592Z,13.49
2024-02-05T17:50:28.864Z,13.47
2024-02-05T17:52:57.112Z,13.48
2024-02-05T17:55:24.331Z,13.39
2024-02-05T17:57:51.550Z,13.42
2024-02-05T18:00:20.276Z,13.34
2024-02-05T18:02:47.745Z,13.34
2024-02-05T18:05:15.385Z,13.38
2024-02-05T18:07:42.685Z,13.35
2024-02-05T18:10:10.133Z,13.31
2024-02-05T18:12:37.237Z,13.31
2024-02-05T18:15:05.555Z,13.30
2024-02-05T18:17:32.776Z,13.22
2024-02-05T18:20:00.270Z,13.15
2024-02-05T18:22:28.951Z,13.14
2024-02-05T18:24:56.196Z,13.13
2024-02-05T18:27:24.154Z,13.10
2024-02-05T18:29:51.315Z,13.12
2024-02-05T18:32:18.556Z,13.11
2024-02-05T18:34:47.422Z,13.09
2024-02-05T18:37:15.819Z,13.11
2024-02-05T18:39:43.040Z,13.09
2024-02-05T18:42:10.266Z,13.06
2024-02-05T18:44:37.450Z,13.03
2024-02-05T18:47:05.413Z,13.05
2024-02-05T18:49:32.721Z,12.98
2024-02-05T18:52:01.562Z,13.04
2024-02-05T18:54:30.923Z,13.00
2024-02-05T18:56:57.986Z,12.98
2024-02-05T18:59:25.050Z,12.97
2024-02-05T19:01:52.166Z,12.90
2024-02-05T19:04:19.409Z,12.93
2024-02-05T19:06:46.784Z,12.89
2024-02-05T19:09:14.539Z,12.92
2024-02-05T19:11:42.157Z,12.92
2024-02-05T19:14:09.395Z,12.90
2024-02-05T19:16:37.326Z,12.88
2024-02-05T19:19:05.432Z,12.87
2024-02-05T19:21:32.714Z,12.90
2024-02-05T19:23:59.794Z,12.86
2024-02-05T19:26:27.059Z,12.88
2024-02-05T19:28:58.003Z,12.87
2024-02-05T19:31:25.981Z,12.77
2024-02-05T19:33:53.334Z,12.79
2024-02-05T19:36:20.592Z,12.78
2024-02-05T19:38:47.807Z,12.75
2024-02-05T19:41:15.705Z,12.69
2024-02-05T19:43:42.896Z,12.70
2024-02-05T19:46:10.382Z,12.65
2024-02-05T19:48:37.650Z,12.64
2024-02-05T19:51:04.837Z,12.62
2024-02-05T19:53:31.941Z,12.55
2024-02-05T19:55:59.153Z,12.51
2024-02-05T19:58:27.006Z,12.52
2024-02-05T20:00:54.236Z,12.48
2024-02-05T20:03:21.335Z,12.46
2024-02-05T20:05:48.444Z,12.39
2024-02-05T20:08:16.129Z,12.44
2024-02-05T20:10:43.390Z,12.39
2024-02-05T20:13:11.257Z,12.38
2024-02-05T20:15:38.396Z,12.34
2024-02-05T20:18:05.841Z,12.35
2024-02-05T20:20:33.913Z,12.37
2024-02-05T20:23:01.321Z,12.34
2024-02-05T20:25:28.411Z,12.33
2024-02-05T20:27:55.727Z,12.30
2024-02-05T20:30:23.084Z,12.26
2024-02-05T20:32:50.215Z,12.19
2024-02-05T20:35:17.754Z,12.25
2024-02-05T20:37:45.061Z,12.24
2024-02-05T20:40:12.404Z,12.23
2024-02-05T20:42:40.147Z,12.20
2024-02-05T20:45:07.689Z,12.15
2024-02-05T20:47:34.712Z,12.14
2024-02-05T20:50:02.424Z,12.12
2024-02-05T20:52:33.882Z,12.09
2024-02-05T20:55:02.385Z,12.10
2024-02-05T20:57:30.308Z,12.04
2024-02-05T20:59:57.632Z,12.06
2024-02-05T21:02:25.170Z,12.04
2024-02-05T21:04:52.621Z,12.04
2024-02-05T21:07:20.053Z,12.02
2024-02-05T21:09:47.228Z,12.07
2024-02-05T21:12:14.330Z,12.08
2024-02-05T21:14:41.423Z,12.07
2024-02-05T21:17:09.404Z,12.08
2024-02-05T21:19:36.696Z,12.07
2024-02-05T21:22:05.611Z,12.04
2024-02-05T21:24:32.801Z,12.03
2024-02-05T21:27:01.692Z,12.01
2024-02-05T21:29:28.949Z,12.03
2024-02-05T21:31:56.065Z,12.05
2024-02-05T21:34:23.790Z,11.96
2024-02-05T21:36:52.488Z,11.96
2024-02-05T21:39:19.991Z,11.99
2024-02-05T21:41:47.157Z,11.99
2024-02-05T21:44:14.253Z,11.89
2024-02-05T21:46:41.750Z,11.95
2024-02-05T21:49:09.006Z,11.94
2024-02-05T21:51:36.224Z,11.94
2024-02-05T21:54:03.489Z,11.90
2024-02-05T21:56:30.729Z,11.88
2024-02-05T21:58:57.898Z,11.88
2024-02-05T22:01:25.106Z,11.86
2024-02-05T22:03:52.344Z,11.85
2024-02-05T22:06:19.496Z,11.84
2024-02-05T22:08:46.650Z,11.82
2024-02-05T22:11:13.883Z,11.79
2024-02-05T22:13:41.016Z,11.77
2024-02-05T22:16:08.363Z,11.77
2024-02-05T22:18:35.539Z,11.73
2024-02-05T22:21:02.780Z,11.74
2024-02-05T22:23:30.027Z,11.70
2024-02-05T22:25:57.263Z,11.72
2024-02-05T22:28:24.634Z,11.69
2024-02-05T22:30:52.922Z,11.68
2024-02-05T22:33:20.134Z,11.64
2024-02-05T22:35:47.896Z,11.63
2024-02-05T22:38:15.071Z,11.55
2024-02-05T22:40:42.272Z,11.61
2024-02-05T22:43:10.454Z,11.59
2024-02-05T22:45:38.335Z,11.59
2024-02-05T22:48:06.272Z,11.58
2024-02-05T22:50:33.642Z,11.60
2024-02-05T22:53:00.870Z,11.60
2024-02-05T22:55:28.101Z,11.61
2024-02-05T22:57:55.316Z,11.61
2024-02-05T23:00:28.700Z,11.60
2024-02-05T23:02:56.794Z,11.57
2024-02-05T23:05:24.339Z,11.62
2024-02-05T23:07:52.063Z,11.61
2024-02-05T23:10:20.292Z,11.63
2024-02-05T23:12:47.554Z,11.58
2024-02-05T23:15:15.663Z,11.62
2024-02-05T23:17:43.224Z,11.63
2024-02-05T23:20:10.944Z,11.62
2024-02-05T23:22:38.884Z,11.65
2024-02-05T23:25:06.958Z,11.58
2024-02-05T23:27:35.175Z,11.61
2024-02-05T23:30:03.592Z,11.55
2024-02-05T23:32:30.733Z,11.60
2024-02-05T23:34:58.629Z,11.59
2024-02-05T23:37:25.764Z,11.56
2024-02-05T23:39:53.083Z,11.59
2024-02-05T23:42:20.309Z,11.59
2024-02-05T23:44:47.440Z,11.62
2024-02-05T23:47:17.462Z,11.60
2024-02-05T23:49:46.999Z,11.61
2024-02-05T23:52:14.201Z,11.59
2024-02-05T23:54:41.281Z,11.57
2024-02-05T23:57:09.653Z,11.56
2024-02-05T23:59:36.771Z,11.60
